Time;durP1;ratioP1;P1;durP2;ratioP2;P2;SDS_P1;SDS_P2;PMS_P1;PMS_P2;Temp;Humidity;BMP_temperature;BMP_pressure;BME280_temperature;BME280_humidity;BME280_pressure;Samples;Min_cycle;Max_cycle;Signal;HPM_P1;HPM_P2
2020/12/27 00:02:36;;;;;;;48.60;21.45;;;;;;;;;;10166445;29;20074;-61
2020/12/27 00:07:38;;;;;;;51.95;24.27;;;6.30;98.30;;;;;;10169472;29;20056;-62
2020/12/27 00:12:40;;;;;;;43.72;19.17;;;;;;;;;;10165761;29;20136;-62
2020/12/27 00:17:42;;;;;;;53.70;27.33;;;;;;;;;;10171262;29;20769;-61
2020/12/27 00:22:45;;;;;;;45.17;28.67;;;;;;;;;;10167667;29;20559;-62
2020/12/27 00:27:47;;;;;;;51.00;23.53;;;;;;;;;;10171539;29;20551;-62
2020/12/27 00:32:48;;;;;;;48.45;29.90;;;;;;;;;;10170788;29;20048;-60
2020/12/27 00:37:50;;;;;;;50.25;22.35;;;6.30;97.60;;;;;;10178845;29;20054;-62
2020/12/27 00:42:51;;;;;;;61.97;33.65;;;6.30;97.70;;;;;;10187165;29;20481;-61
2020/12/27 00:47:53;;;;;;;62.30;38.65;;;6.30;97.60;;;;;;10174452;29;20498;-60
2020/12/27 00:52:55;;;;;;;64.90;29.33;;;;;;;;;;10178053;29;20890;-60
2020/12/27 00:57:57;;;;;;;61.13;31.80;;;6.30;97.20;;;;;;10173082;29;20460;-60
2020/12/27 01:02:58;;;;;;;69.07;36.33;;;6.30;97.30;;;;;;10176407;29;21035;-61
2020/12/27 01:08:00;;;;;;;64.60;30.45;;;6.30;97.30;;;;;;10171303;29;20148;-60
2020/12/27 01:13:02;;;;;;;51.17;27.60;;;;;;;;;;10172880;29;20143;-61
2020/12/27 01:18:03;;;;;;;48.70;27.05;;;;;;;;;;10172583;29;20092;-61
2020/12/27 01:23:06;;;;;;;54.05;30.35;;;;;;;;;;10180464;29;20158;-61
2020/12/27 01:28:07;;;;;;;56.17;28.53;;;;;;;;;;10180173;29;20138;-61
2020/12/27 01:33:09;;;;;;;53.45;31.65;;;;;;;;;;10172743;29;20476;-61
2020/12/27 01:38:12;;;;;;;60.95;29.75;;;;;;;;;;10182078;29;20048;-61
2020/12/27 01:43:13;;;;;;;55.03;34.03;;;;;;;;;;10170524;29;20060;-61
2020/12/27 01:48:15;;;;;;;67.38;27.85;;;;;;;;;;10169540;29;20082;-61
2020/12/27 01:53:18;;;;;;;65.57;41.80;;;;;;;;;;10171019;29;20576;-60
2020/12/27 01:58:20;;;;;;;56.13;36.17;;;6.00;97.60;;;;;;10168805;29;20060;-61
2020/12/27 02:03:22;;;;;;;59.30;34.83;;;;;;;;;;10166415;29;20060;-61
2020/12/27 02:08:25;;;;;;;56.03;30.67;;;;;;;;;;10166690;29;20047;-60
2020/12/27 02:13:26;;;;;;;54.03;34.03;;;;;;;;;;10173828;29;20056;-60
2020/12/27 02:18:28;;;;;;;50.03;31.60;;;;;;;;;;10173525;29;20138;-60
2020/12/27 02:23:31;;;;;;;46.67;28.63;;;;;;;;;;10169091;29;20530;-61
2020/12/27 02:28:33;;;;;;;45.33;30.97;;;5.80;97.30;;;;;;10171389;29;20044;-61
2020/12/27 02:33:34;;;;;;;47.85;29.08;;;;;;;;;;10169733;29;20066;-61
2020/12/27 02:38:36;;;;;;;38.65;25.17;;;;;;;;;;10170888;29;20087;-61
2020/12/27 02:43:39;;;;;;;54.90;32.20;;;;;;;;;;10168878;29;20075;-60
2020/12/27 02:48:40;;;;;;;48.13;31.13;;;;;;;;;;10169579;29;20059;-61
2020/12/27 02:53:48;;;;;;;51.15;30.63;;;;;;;;;;10167106;29;20540;-61
2020/12/27 02:58:51;;;;;;;43.15;23.23;;;;;;;;;;10173853;29;20583;-61
2020/12/27 03:03:53;;;;;;;53.47;32.72;;;;;;;;;;10171560;29;20091;-63
2020/12/27 03:08:54;;;;;;;64.43;37.17;;;;;;;;;;10170324;29;20142;-62
2020/12/27 03:13:57;;;;;;;72.60;29.45;;;;;;;;;;10167531;29;20055;-62
2020/12/27 03:18:59;;;;;;;65.33;32.80;;;;;;;;;;10169729;29;20056;-63
2020/12/27 03:24:00;;;;;;;51.05;25.63;;;;;;;;;;10175431;29;20056;-63
2020/12/27 03:29:04;;;;;;;56.15;25.55;;;;;;;;;;10171118;29;20210;-63
2020/12/27 03:34:05;;;;;;;62.08;33.55;;;;;;;;;;10167826;29;20044;-62
2020/12/27 03:39:07;;;;;;;69.25;31.25;;;;;;;;;;10169498;29;20055;-62
2020/12/27 03:44:10;;;;;;;47.00;30.55;;;5.40;99.90;;;;;;10168433;29;20074;-64
2020/12/27 03:49:11;;;;;;;45.75;25.75;;;;;;;;;;10167211;29;20400;-61
2020/12/27 03:54:13;;;;;;;38.65;21.75;;;5.50;99.90;;;;;;10172137;29;20061;-61
2020/12/27 03:59:15;;;;;;;28.85;18.40;;;;;;;;;;10175306;29;20531;-62
2020/12/27 04:04:17;;;;;;;39.43;21.40;;;;;;;;;;10179601;29;20222;-63
2020/12/27 04:09:19;;;;;;;37.50;19.60;;;;;;;;;;10175269;29;20143;-63
2020/12/27 04:14:21;;;;;;;42.67;25.40;;;;;;;;;;10181481;29;20485;-65
2020/12/27 04:19:23;;;;;;;41.35;16.95;;;;;;;;;;10175598;29;20209;-63
2020/12/27 04:24:25;;;;;;;43.42;23.80;;;;;;;;;;10174744;29;20710;-63
2020/12/27 04:29:27;;;;;;;43.17;20.85;;;;;;;;;;10176054;29;20074;-63
2020/12/27 04:34:29;;;;;;;45.57;22.93;;;;;;;;;;10174895;29;20048;-62
2020/12/27 04:39:30;;;;;;;41.25;22.27;;;;;;;;;;10173890;29;20059;-62
2020/12/27 04:44:34;;;;;;;43.58;22.90;;;5.60;99.90;;;;;;10177861;29;20496;-62
2020/12/27 04:49:35;;;;;;;36.67;16.15;;;5.60;99.90;;;;;;10172198;29;20394;-64
2020/12/27 04:54:37;;;;;;;27.73;20.13;;;;;;;;;;10177161;29;20075;-62
2020/12/27 04:59:41;;;;;;;31.70;21.27;;;;;;;;;;10175266;29;20055;-61
2020/12/27 05:04:45;;;;;;;18.13;12.98;;;5.60;99.90;;;;;;10171896;29;20491;-63
2020/12/27 05:09:49;;;;;;;27.35;16.80;;;;;;;;;;10174895;29;20047;-62
2020/12/27 05:14:51;;;;;;;23.08;16.88;;;;;;;;;;10175722;29;20062;-65
2020/12/27 05:19:53;;;;;;;22.87;15.07;;;;;;;;;;10173969;29;20055;-62
2020/12/27 05:24:55;;;;;;;33.25;18.60;;;;;;;;;;10178476;29;20138;-63
2020/12/27 05:30:00;;;;;;;28.17;16.88;;;5.60;99.90;;;;;;10171001;29;20048;-62
2020/12/27 05:35:02;;;;;;;34.08;19.05;;;;;;;;;;10171703;29;20052;-63
2020/12/27 05:40:04;;;;;;;30.40;19.33;;;;;;;;;;10184330;29;20060;-63
2020/12/27 05:45:13;;;;;;;32.53;17.05;;;5.60;99.90;;;;;;10178905;29;20048;-65
2020/12/27 05:50:16;;;;;;;19.00;12.55;;;;;;;;;;10190284;29;20142;-63
2020/12/27 05:55:18;;;;;;;20.25;11.43;;;;;;;;;;10176056;29;20060;-63
2020/12/27 06:00:22;;;;;;;20.20;13.57;;;;;;;;;;10178978;29;20060;-62
2020/12/27 06:05:32;;;;;;;23.13;13.35;;;;;;;;;;10175744;29;20527;-63
2020/12/27 06:10:44;;;;;;;18.63;11.80;;;;;;;;;;10170384;29;20139;-63
2020/12/27 06:15:48;;;;;;;0.20;0.20;;;;;;;;;;10171188;29;20146;-62
2020/12/27 06:20:52;;;;;;;15.95;9.30;;;;;;;;;;10169483;29;20060;-65
2020/12/27 06:25:57;;;;;;;6.63;5.65;;;5.60;99.90;;;;;;10169963;29;20135;-62
2020/12/27 06:31:04;;;;;;;16.40;8.45;;;5.70;99.90;;;;;;10169455;29;20071;-63
2020/12/27 06:36:06;;;;;;;12.13;7.00;;;;;;;;;;10183114;29;20127;-62
2020/12/27 06:41:09;;;;;;;10.65;6.45;;;;;;;;;;10169553;29;20455;-61
2020/12/27 06:46:11;;;;;;;;;;;;;;;;;;10172983;29;20147;-62
2020/12/27 06:51:33;;;;;;;9.90;5.45;;;5.90;99.90;;;;;;10169746;29;19978;-62
2020/12/27 06:56:38;;;;;;;10.60;6.13;;;;;;;;;;10167110;29;20048;-62
2020/12/27 07:01:40;;;;;;;6.93;4.32;;;;;;;;;;10168343;29;21516;-62
2020/12/27 07:06:43;;;;;;;10.13;4.35;;;;;;;;;;10168750;29;20094;-62
2020/12/27 07:11:45;;;;;;;8.60;4.18;;;;;;;;;;10175736;29;20052;-63
2020/12/27 07:16:48;;;;;;;6.22;3.17;;;;;;;;;;10178671;29;20496;-62
2020/12/27 07:21:53;;;;;;;7.50;3.20;;;;;;;;;;10172933;29;20521;-62
2020/12/27 07:26:55;;;;;;;13.32;4.13;;;;;;;;;;10173152;29;20075;-62
2020/12/27 07:31:57;;;;;;;8.63;3.53;;;;;;;;;;10167763;29;20147;-62
2020/12/27 07:37:01;;;;;;;7.85;3.88;;;5.90;99.90;;;;;;10180198;29;20131;-63
2020/12/27 07:42:02;;;;;;;5.30;2.38;;;;;;;;;;10177517;29;20072;-62
2020/12/27 07:47:06;;;;;;;9.65;2.60;;;;;;;;;;10176302;29;20056;-63
2020/12/27 07:52:08;;;;;;;4.72;3.13;;;;;;;;;;10176233;29;20056;-62
2020/12/27 07:57:13;;;;;;;10.03;3.10;;;;;;;;;;10175630;29;20469;-62
2020/12/27 08:02:15;;;;;;;8.75;3.53;;;6.20;99.90;;;;;;10178586;29;20072;-62
2020/12/27 08:07:21;;;;;;;4.82;2.63;;;6.30;99.90;;;;;;10170227;29;20078;-62
2020/12/27 08:12:22;;;;;;;6.43;2.13;;;;;;;;;;10173101;29;20052;-61
2020/12/27 08:17:24;;;;;;;2.90;2.30;;;;;;;;;;10176990;29;20249;-64
2020/12/27 08:22:27;;;;;;;3.20;2.25;;;;;;;;;;10177645;29;20075;-62
2020/12/27 08:27:28;;;;;;;6.93;2.10;;;;;;;;;;10174147;29;20048;-63
2020/12/27 08:32:30;;;;;;;2.40;1.70;;;;;;;;;;10176369;29;20511;-62
2020/12/27 08:37:34;;;;;;;3.15;1.55;;;;;;;;;;10172777;29;20126;-62
2020/12/27 08:42:39;;;;;;;3.58;1.15;;;;;;;;;;10172775;29;20052;-65
2020/12/27 08:47:45;;;;;;;5.78;1.48;;;;;;;;;;10171825;29;20092;-64
2020/12/27 08:52:48;;;;;;;4.68;1.42;;;;;;;;;;10173582;29;20047;-63
2020/12/27 08:57:50;;;;;;;3.35;1.52;;;;;;;;;;10172608;29;20059;-63
2020/12/27 09:02:57;;;;;;;2.63;1.33;;;;;;;;;;10173775;29;20052;-62
2020/12/27 09:07:59;;;;;;;5.50;1.67;;;;;;;;;;10173833;29;20044;-62
2020/12/27 09:13:02;;;;;;;6.65;1.67;;;;;;;;;;10183759;29;20076;-63
2020/12/27 09:18:04;;;;;;;7.55;1.38;;;7.10;99.90;;;;;;10171916;29;20040;-62
2020/12/27 09:23:13;;;;;;;9.03;1.50;;;;;;;;;;10170467;29;20416;-61
2020/12/27 09:28:15;;;;;;;5.05;1.00;;;;;;;;;;10175710;29;20139;-63
2020/12/27 09:33:20;;;;;;;2.72;1.40;;;7.20;96.30;;;;;;10171415;29;20040;-65
2020/12/27 09:38:26;;;;;;;5.40;1.45;;;;;;;;;;10173493;29;20079;-62
2020/12/27 09:43:28;;;;;;;2.92;1.30;;;;;;;;;;10174326;29;20044;-64
2020/12/27 09:48:32;;;;;;;3.95;1.17;;;;;;;;;;10175621;29;20055;-63
2020/12/27 09:53:35;;;;;;;4.88;1.40;;;;;;;;;;10178862;29;20063;-64
2020/12/27 09:58:37;;;;;;;5.25;1.33;;;;;;;;;;10171875;29;20126;-61
2020/12/27 10:03:38;;;;;;;5.07;1.40;;;;;;;;;;10181108;29;20071;-64
2020/12/27 10:08:41;;;;;;;4.47;1.85;;;;;;;;;;10166843;29;20586;-63
2020/12/27 10:13:43;;;;;;;4.70;1.10;;;;;;;;;;10172007;29;20076;-67
2020/12/27 10:18:45;;;;;;;4.78;1.42;;;;;;;;;;10173671;29;20051;-69
2020/12/27 10:23:48;;;;;;;2.15;1.20;;;;;;;;;;10154737;29;20111;-65
2020/12/27 10:28:49;;;;;;;3.75;1.50;;;;;;;;;;10174213;29;20425;-62
2020/12/27 10:33:51;;;;;;;2.40;1.40;;;;;;;;;;10167237;29;20916;-62
2020/12/27 10:38:54;;;;;;;8.25;1.73;;;;;;;;;;10167924;29;20048;-68
2020/12/27 10:43:55;;;;;;;7.23;2.20;;;;;;;;;;10172751;29;20103;-62
2020/12/27 10:48:57;;;;;;;10.07;2.33;;;;;;;;;;10171741;29;20048;-62
2020/12/27 10:54:00;;;;;;;13.27;2.55;;;;;;;;;;10167275;29;20122;-63
2020/12/27 10:59:02;;;;;;;14.70;2.50;;;;;;;;;;10170412;29;20098;-66
2020/12/27 11:04:04;;;;;;;10.35;3.28;;;;;;;;;;10169264;29;20060;-68
2020/12/27 11:09:06;;;;;;;12.18;2.05;;;6.90;98.60;;;;;;10167136;29;20571;-65
2020/12/27 11:14:08;;;;;;;9.30;3.07;;;;;;;;;;10166776;29;20393;-73
2020/12/27 11:19:10;;;;;;;6.35;2.00;;;;;;;;;;10170621;29;20055;-65
2020/12/27 11:24:14;;;;;;;15.27;2.20;;;;;;;;;;10167868;29;20055;-69
2020/12/27 11:29:15;;;;;;;5.90;1.58;;;;;;;;;;10170497;29;20056;-60
2020/12/27 11:34:17;;;;;;;11.82;2.50;;;;;;;;;;10176481;29;20051;-61
2020/12/27 11:39:20;;;;;;;10.55;2.63;;;;;;;;;;10164782;29;20199;-63
2020/12/27 11:44:22;;;;;;;17.00;3.15;;;;;;;;;;10173151;29;20107;-61
2020/12/27 11:49:23;;;;;;;12.18;2.20;;;;;;;;;;10168929;29;20087;-63
2020/12/27 11:54:26;;;;;;;11.35;1.80;;;;;;;;;;10172544;29;20140;-68
2020/12/27 11:59:27;;;;;;;21.77;3.03;;;;;;;;;;10163556;29;20067;-63
2020/12/27 12:04:29;;;;;;;20.52;2.03;;;;;;;;;;10169782;29;20060;-63
2020/12/27 12:09:31;;;;;;;13.68;1.58;;;;;;;;;;10168291;29;20055;-63
2020/12/27 12:14:33;;;;;;;31.27;2.63;;;;;;;;;;10165156;29;20058;-64
2020/12/27 12:19:35;;;;;;;25.52;2.40;;;;;;;;;;10166334;29;20207;-63
2020/12/27 12:24:37;;;;;;;11.57;2.13;;;;;;;;;;10177182;29;20138;-63
2020/12/27 12:29:39;;;;;;;14.13;1.50;;;;;;;;;;10173026;29;20063;-64
2020/12/27 12:34:41;;;;;;;8.57;1.90;;;;;;;;;;10171197;29;20543;-66
2020/12/27 12:39:43;;;;;;;13.93;2.42;;;;;;;;;;10172629;29;20048;-66
2020/12/27 12:44:45;;;;;;;13.40;1.73;;;;;;;;;;10176506;29;20147;-68
2020/12/27 12:49:47;;;;;;;4.97;2.08;;;;;;;;;;10178322;29;20542;-67
2020/12/27 12:54:49;;;;;;;1.45;1.35;;;;;;;;;;10177936;29;20063;-69
2020/12/27 12:59:51;;;;;;;2.70;0.77;;;;;;;;;;10171490;29;20052;-68
2020/12/27 13:04:53;;;;;;;4.38;0.93;;;;;;;;;;10175235;29;20052;-67
2020/12/27 13:09:55;;;;;;;1.45;0.60;;;;;;;;;;10172244;29;20086;-68
2020/12/27 13:14:57;;;;;;;5.50;1.30;;;;;;;;;;10174267;29;20091;-68
2020/12/27 13:19:59;;;;;;;2.22;0.73;;;;;;;;;;10177527;29;20139;-70
2020/12/27 13:25:01;;;;;;;7.72;0.90;;;;;;;;;;10178818;29;20056;-73
2020/12/27 13:30:03;;;;;;;9.65;0.70;;;;;;;;;;10170163;29;20084;-74
2020/12/27 13:35:05;;;;;;;7.32;0.80;;;;;;;;;;10172457;29;20074;-73
2020/12/27 13:40:08;;;;;;;11.23;0.80;;;;;;;;;;10171417;29;20062;-73
2020/12/27 13:45:10;;;;;;;9.50;0.80;;;;;;;;;;10171225;29;20487;-73
2020/12/27 13:50:12;;;;;;;5.03;0.60;;;;;;;;;;10155057;29;20091;-72
2020/12/27 13:55:15;;;;;;;6.28;1.00;;;;;;;;;;10180689;29;20067;-73
2020/12/27 14:00:17;;;;;;;0.47;0.47;;;;;;;;;;10168992;29;20390;-73
2020/12/27 14:05:18;;;;;;;5.18;0.73;;;;;;;;;;10173150;29;20064;-73
2020/12/27 14:10:21;;;;;;;2.20;0.70;;;;;;;;;;10170938;29;20063;-73
2020/12/27 14:15:23;;;;;;;0.85;0.52;;;;;;;;;;10172110;29;20048;-73
2020/12/27 14:20:24;;;;;;;5.07;0.60;;;;;;;;;;10170745;29;20063;-73
2020/12/27 14:25:27;;;;;;;6.75;0.65;;;;;;;;;;10179856;29;20051;-74
2020/12/27 14:30:29;;;;;;;4.93;0.80;;;;;;;;;;10173045;29;20532;-73
2020/12/27 14:35:30;;;;;;;3.60;0.80;;;;;;;;;;10165572;29;20056;-74
2020/12/27 14:40:33;;;;;;;3.28;0.47;;;;;;;;;;10167636;29;20056;-73
2020/12/27 14:45:35;;;;;;;2.50;0.80;;;;;;;;;;10163479;29;20052;-73
2020/12/27 14:50:36;;;;;;;14.52;1.27;;;;;;;;;;10164440;29;20584;-73
2020/12/27 14:55:39;;;;;;;4.97;0.50;;;;;;;;;;10179232;29;20146;-75
2020/12/27 15:00:40;;;;;;;2.10;1.03;;;;;;;;;;10168297;29;20056;-76
2020/12/27 15:05:42;;;;;;;1.42;0.85;;;;;;;;;;10169212;29;20633;-76
2020/12/27 15:10:45;;;;;;;0.70;0.60;;;;;;;;;;10167071;29;20520;-75
2020/12/27 15:15:46;;;;;;;0.20;0.20;;;;;;;;;;10170021;29;20051;-76
2020/12/27 15:20:48;;;;;;;0.20;0.20;;;;;;;;;;10170262;29;20146;-76
2020/12/27 15:25:51;;;;;;;0.10;0.10;;;;;;;;;;10170539;29;20056;-75
2020/12/27 15:30:52;;;;;;;0.20;0.20;;;;;;;;;;10168753;29;20123;-74
2020/12/27 15:35:54;;;;;;;0.20;0.20;;;;;;;;;;10173718;29;20047;-66
2020/12/27 15:40:57;;;;;;;0.20;0.20;;;;;;;;;;10166987;29;20480;-68
2020/12/27 15:45:59;;;;;;;0.20;0.20;;;;;;;;;;10179179;29;20059;-65
2020/12/27 15:51:02;;;;;;;0.25;0.25;;;;;;;;;;10158694;29;20096;-67
2020/12/27 15:56:05;;;;;;;0.20;0.20;;;;;;;;;;10122891;28;22058;-65
2020/12/27 16:01:07;;;;;;;0.20;0.20;;;;;;;;;;10178311;29;20070;-67
2020/12/27 16:06:09;;;;;;;1.48;1.38;;;;;;;;;;10102021;29;20056;-66
2020/12/27 16:11:12;;;;;;;0.20;0.20;;;;;;;;;;10096054;29;20185;-64
2020/12/27 16:16:14;;;;;;;0.50;0.50;;;;;;;;;;10099191;29;20048;-65
2020/12/27 16:21:15;;;;;;;0.30;0.30;;;;;;;;;;10097100;29;20556;-66
2020/12/27 16:26:18;;;;;;;0.25;0.25;;;;;;;;;;10100179;29;20053;-66
2020/12/27 16:31:27;;;;;;;0.25;0.25;;;;;;;;;;10101349;29;20048;-66
2020/12/27 16:36:29;;;;;;;0.15;0.15;;;;;;;;;;10094713;29;20085;-66
2020/12/27 16:41:32;;;;;;;0.20;0.20;;;;;;;;;;10088143;29;20060;-66
2020/12/27 16:46:34;;;;;;;0.10;0.10;;;;;;;;;;10095798;29;20136;-66
2020/12/27 16:51:35;;;;;;;0.20;0.20;;;;;;;;;;10097780;29;20057;-66
2020/12/27 16:56:38;;;;;;;0.20;0.20;;;;;;;;;;10094862;29;20148;-66
2020/12/27 17:01:40;;;;;;;0.20;0.20;;;;;;;;;;10108442;29;20120;-66
2020/12/27 17:06:41;;;;;;;0.20;0.20;;;;;;;;;;10175106;29;20075;-66
2020/12/27 17:11:44;;;;;;;0.20;0.20;;;;;;;;;;10179464;29;20096;-66
2020/12/27 17:16:46;;;;;;;0.30;0.30;;;;;;;;;;10172201;29;20048;-66
2020/12/27 17:21:47;;;;;;;0.20;0.20;;;;;;;;;;10173824;29;20074;-66
2020/12/27 17:26:50;;;;;;;0.20;0.20;;;;;;;;;;10172444;29;20179;-65
2020/12/27 17:31:52;;;;;;;0.20;0.20;;;;;;;;;;10172431;29;20048;-66
2020/12/27 17:36:57;;;;;;;0.10;0.10;;;;;;;;;;10172259;29;20989;-66
2020/12/27 17:42:00;;;;;;;0.20;0.20;;;;;;;;;;10168529;29;20399;-67
2020/12/27 17:47:02;;;;;;;0.20;0.20;;;;;;;;;;10174009;29;20130;-67
2020/12/27 17:52:03;;;;;;;0.20;0.20;;;;;;;;;;10169447;29;20059;-67
2020/12/27 17:57:06;;;;;;;0.28;0.28;;;;;;;;;;10176891;29;20687;-66
2020/12/27 18:02:10;;;;;;;0.13;0.13;;;;;;;;;;10174493;29;20070;-67
2020/12/27 18:07:11;;;;;;;0.13;0.13;;;;;;;;;;10169208;29;20139;-67
2020/12/27 18:12:14;;;;;;;0.35;0.35;;;;;;;;;;10172468;29;20082;-66
2020/12/27 18:17:16;;;;;;;0.20;0.20;;;;;;;;;;10174534;29;20078;-66
2020/12/27 18:22:18;;;;;;;0.30;0.30;;;;;;;;;;10169670;29;20465;-66
2020/12/27 18:27:20;;;;;;;0.20;0.20;;;;;;;;;;10170317;29;20048;-64
2020/12/27 18:32:22;;;;;;;0.30;0.30;;;;;;;;;;10172353;29;20056;-64
2020/12/27 18:37:24;;;;;;;0.20;0.20;;;;;;;;;;10169500;29;20139;-66
2020/12/27 18:42:26;;;;;;;0.20;0.20;;;;;;;;;;10178724;29;20056;-65
2020/12/27 18:47:28;;;;;;;0.20;0.20;;;;;;;;;;10171847;29;20130;-66
2020/12/27 18:52:30;;;;;;;0.25;0.25;;;;;;;;;;10179711;29;20120;-66
2020/12/27 18:57:32;;;;;;;0.30;0.30;;;;;;;;;;10174856;29;20091;-66
2020/12/27 19:02:34;;;;;;;0.35;0.35;;;;;;;;;;10171774;29;20457;-67
2020/12/27 19:07:36;;;;;;;0.20;0.20;;;;;;;;;;10172772;29;20488;-64
2020/12/27 19:12:39;;;;;;;1.60;1.50;;;;;;;;;;10168955;29;20559;-66
2020/12/27 19:17:41;;;;;;;0.28;0.28;;;;;;;;;;10173977;29;20551;-66
2020/12/27 19:22:42;;;;;;;1.75;1.10;;;;;;;;;;10170944;29;20052;-65
2020/12/27 19:27:45;;;;;;;0.50;0.50;;;;;;;;;;10166088;29;20160;-65
2020/12/27 19:32:47;;;;;;;0.20;0.20;;;;;;;;;;10168312;29;20044;-71
2020/12/27 19:37:48;;;;;;;0.20;0.20;;;;;;;;;;10165689;29;20563;-70
2020/12/27 19:42:52;;;;;;;0.30;0.30;;;;;;;;;;10176798;29;20086;-71
2020/12/27 19:47:54;;;;;;;0.20;0.20;;;;;;;;;;10183792;29;20052;-70
2020/12/27 19:52:56;;;;;;;0.20;0.20;;;;;;;;;;10177597;29;20067;-71
2020/12/27 19:57:58;;;;;;;0.20;0.20;;;;;;;;;;10175267;29;20059;-71
2020/12/27 20:03:00;;;;;;;0.57;0.57;;;;;;;;;;10173344;29;20055;-71
2020/12/27 20:08:02;;;;;;;0.30;0.30;;;;;;;;;;10165755;29;20590;-70
2020/12/27 20:13:07;;;;;;;0.20;0.20;;;;;;;;;;10158122;29;20060;-71
2020/12/27 20:18:09;;;;;;;0.20;0.20;;;;;;;;;;10159983;29;20398;-70
2020/12/27 20:23:11;;;;;;;0.35;0.35;;;;;;;;;;10166790;29;20048;-69
2020/12/27 20:28:13;;;;;;;0.20;0.20;;;;;;;;;;10165931;29;20421;-70
2020/12/27 20:33:15;;;;;;;0.30;0.30;;;;;;;;;;10173735;29;20048;-69
2020/12/27 20:38:17;;;;;;;0.75;0.75;;;;;;;;;;10163546;29;20060;-70
2020/12/27 20:43:20;;;;;;;0.40;0.40;;;;;;;;;;10182424;29;20064;-69
2020/12/27 20:48:22;;;;;;;0.40;0.40;;;;;;;;;;10179870;29;20067;-70
2020/12/27 20:53:24;;;;;;;0.40;0.40;;;;;;;;;;10182932;29;20552;-70
2020/12/27 20:58:27;;;;;;;0.45;0.45;;;;;;;;;;10174871;29;20064;-69
2020/12/27 21:03:29;;;;;;;0.60;0.60;;;;;;;;;;10182290;29;20048;-69
2020/12/27 21:08:31;;;;;;;0.47;0.47;;;;;;;;;;10182027;29;20047;-70
2020/12/27 21:13:33;;;;;;;0.17;0.17;;;;;;;;;;10181110;29;20097;-70
2020/12/27 21:18:35;;;;;;;1.73;1.67;;;;;;;;;;10187799;29;20066;-68
2020/12/27 21:23:37;;;;;;;0.65;0.65;;;;;;;;;;10180147;29;20529;-70
2020/12/27 21:28:39;;;;;;;0.20;0.20;;;;;;;;;;10175081;29;20076;-69
2020/12/27 21:33:41;;;;;;;0.20;0.20;;;;;;;;;;10180019;29;20160;-69
2020/12/27 21:38:43;;;;;;;0.20;0.20;;;;;;;;;;10188010;29;20048;-70
2020/12/27 21:43:45;;;;;;;0.30;0.30;;;;;;;;;;10175079;29;20154;-69
2020/12/27 21:48:47;;;;;;;0.70;0.70;;;;;;;;;;10171161;29;20056;-70
2020/12/27 21:53:49;;;;;;;0.30;0.30;;;;;;;;;;10177782;29;20143;-69
2020/12/27 21:58:52;;;;;;;0.20;0.20;;;;;;;;;;10169672;29;20134;-69
2020/12/27 22:03:54;;;;;;;0.77;0.77;;;;;;;;;;10174357;29;20098;-69
2020/12/27 22:08:55;;;;;;;0.40;0.40;;;;;;;;;;10176788;29;20097;-69
2020/12/27 22:13:58;;;;;;;0.30;0.30;;;;;;;;;;10179419;29;20059;-69
2020/12/27 22:19:00;;;;;;;0.25;0.25;;;;;;;;;;10171467;29;20044;-69
2020/12/27 22:24:01;;;;;;;0.55;0.55;;;;;;;;;;10169083;29;20051;-69
2020/12/27 22:29:04;;;;;;;0.70;0.70;;;;;;;;;;10178652;29;20082;-69
2020/12/27 22:34:06;;;;;;;0.40;0.40;;;;;;;;;;10169022;29;20115;-70
2020/12/27 22:39:08;;;;;;;0.60;0.60;;;;;;;;;;10173354;29;20075;-69
2020/12/27 22:44:10;;;;;;;0.20;0.20;;;;;;;;;;10156801;29;20052;-70
2020/12/27 22:49:12;;;;;;;0.30;0.30;;;;;;;;;;10170128;29;20051;-69
2020/12/27 22:54:14;;;;;;;0.50;0.50;;;;;;;;;;10173773;29;20079;-69
2020/12/27 22:59:16;;;;;;;0.30;0.30;;;;;;;;;;10166362;29;20110;-69
2020/12/27 23:04:18;;;;;;;0.30;0.30;;;;;;;;;;10164272;29;20090;-69
2020/12/27 23:09:20;;;;;;;0.30;0.30;;;;;;;;;;10163139;29;20174;-69
2020/12/27 23:14:23;;;;;;;0.60;0.60;;;;;;;;;;10172040;29;20139;-69
2020/12/27 23:19:24;;;;;;;2.05;1.88;;;;;;;;;;10171712;29;20067;-70
2020/12/27 23:24:26;;;;;;;0.30;0.30;;;;;;;;;;10165410;29;20084;-68
2020/12/27 23:29:29;;;;;;;0.53;0.53;;;;;;;;;;10167950;29;20044;-67
2020/12/27 23:34:31;;;;;;;0.40;0.40;;;;;;;;;;10165579;29;20416;-68
2020/12/27 23:39:32;;;;;;;0.20;0.20;;;;;;;;;;10164938;29;20052;-68
2020/12/27 23:44:35;;;;;;;0.40;0.40;;;;;;;;;;10163890;29;20417;-68
2020/12/27 23:49:36;;;;;;;0.70;0.70;;;;;;;;;;10169434;29;20125;-68
2020/12/27 23:54:38;;;;;;;0.65;0.65;;;;;;;;;;10173726;29;20063;-70
2020/12/27 23:59:41;;;;;;;1.03;1.03;;;;;;;;;;10167962;29;20062;-69
